aviador You're here:

CYOA Decoded Metar

EKATI (PWS) in NT, CANADA
Report Time2018-04-26 13:00:00
UTC Time2018-04-26 13:12:02
Flight Rules ifr IFR
Wind120° at 07 kt
W.Decomp.*RWY 02: 0.7 kt HW 7.0 kt RCW
W.Rank120° ranks 2
Current wind is below 120° avg. (12.4)
Visibility2414 m
Phenomena:Light Snow
Clouds:Overcast 025 Hf
Expected CloudBase > 800 ft AGL from Temp-Dew spread
Ceiling2,500 ft
Temp-10°C (ISA -22)
Dew Point-12°C (85% RH)
AAT-15.7°C
QNH1008 hPa
Density Alt-981 ft
Elevation1,539 ft
Report Wrong Elevation
Raw Report
CYOA 261300Z 12007KT 1 1/2SM -SN OVC025 M10/M12 A2978 RMK SC8=

Extra information for CYOA:More info

Metar Taf Metar & Taf Last 4 Metars F.Rules Stats Wind Profile Meteogram Temp Stats Airport Information Weather charts Add Link Nearby VenuesMetar ALERT Operation Metar Decoded Social comments